Time;durP1;ratioP1;P1;durP2;ratioP2;P2;SDS_P1;SDS_P2;PMS_P1;PMS_P2;Temp;Humidity;BMP_temperature;BMP_pressure;BME280_temperature;BME280_humidity;BME280_pressure;Samples;Min_cycle;Max_cycle;Signal;HPM_P1;HPM_P2
2021/06/07 18:57:35;;;;;;;8.48;7.68;;;17.20;99.90;;;;;;6344381;27;779849;-80
2021/06/07 19:00:37;;;;;;;8.88;7.97;;;;;;;;;;6312584;28;20389;-80
2021/06/07 19:03:38;;;;;;;9.07;8.18;;;17.30;99.90;;;;;;6346365;28;20034;-80
2021/06/07 19:06:38;;;;;;;8.30;7.50;;;17.20;99.90;;;;;;6329739;28;20066;-80
2021/06/07 19:09:44;;;;;;;8.93;8.05;;;;;;;;;;6309571;28;20027;-81
2021/06/07 19:12:46;;;;;;;9.93;8.38;;;;;;;;;;6346755;28;20023;-81
2021/06/07 19:15:46;;;;;;;9.50;8.48;;;17.20;99.90;;;;;;6345965;28;20061;-81
2021/06/07 19:18:47;;;;;;;9.93;9.02;;;;;;;;;;6346771;28;20441;-79
2021/06/07 19:21:48;;;;;;;12.45;9.95;;;17.20;99.90;;;;;;6363888;28;20016;-80
2021/06/07 19:24:49;;;;;;;16.38;10.43;;;;;;;;;;6328979;28;20039;-79
2021/06/07 19:27:50;;;;;;;12.23;9.35;;;17.00;99.90;;;;;;6346698;28;20039;-78
2021/06/07 19:30:50;;;;;;;9.15;8.25;;;17.00;99.90;;;;;;6359738;28;20082;-79
2021/06/07 19:33:51;;;;;;;9.32;8.18;;;17.10;99.90;;;;;;6345306;28;20039;-80
2021/06/07 19:36:52;;;;;;;10.77;8.73;;;17.10;99.90;;;;;;6364465;28;20079;-81
2021/06/07 19:39:53;;;;;;;9.25;7.70;;;17.50;99.90;;;;;;6328389;28;20157;-81
2021/06/07 19:42:53;;;;;;;8.82;8.00;;;17.00;99.90;;;;;;6309140;28;20036;-82
2021/06/07 19:45:54;;;;;;;9.13;8.23;;;16.90;99.90;;;;;;6314977;28;20442;-82
2021/06/07 19:48:55;;;;;;;8.70;7.90;;;17.00;99.90;;;;;;6321110;28;20028;-82
2021/06/07 19:51:55;;;;;;;9.70;8.80;;;17.10;99.90;;;;;;6303472;28;20089;-85
2021/06/07 19:54:56;;;;;;;9.45;8.40;;;16.70;99.90;;;;;;6318896;28;20061;-80
2021/06/07 19:57:57;;;;;;;8.63;7.73;;;16.90;99.90;;;;;;6319842;28;20032;-80
2021/06/07 20:00:58;;;;;;;8.65;7.85;;;17.10;99.90;;;;;;6320203;28;20389;-80
2021/06/07 20:03:58;;;;;;;11.23;8.57;;;17.10;99.90;;;;;;6319980;28;20109;-84
2021/06/07 20:06:59;;;;;;;9.00;8.18;;;16.90;99.90;;;;;;6314376;28;20378;-86
2021/06/07 20:10:01;;;;;;;9.10;7.88;;;17.00;99.90;;;;;;6287295;28;20028;-83
2021/06/07 20:13:01;;;;;;;9.50;8.50;;;16.90;99.90;;;;;;6304030;28;20051;-84
2021/06/07 20:16:03;;;;;;;9.45;8.60;;;;;;;;;;6303294;28;20040;-83
2021/06/07 20:19:03;;;;;;;9.02;8.23;;;16.90;99.90;;;;;;6304220;28;20107;-82
2021/06/07 20:22:04;;;;;;;8.57;7.80;;;16.90;99.90;;;;;;6286738;28;20032;-82
2021/06/07 20:25:05;;;;;;;8.55;7.75;;;17.90;99.90;;;;;;6266118;28;20039;-81
2021/06/07 20:28:05;;;;;;;8.88;8.07;;;16.80;99.90;;;;;;6302719;28;20036;-80
2021/06/07 20:31:06;;;;;;;8.85;7.95;;;16.80;99.90;;;;;;6302842;28;20119;-82
2021/06/07 20:34:09;;;;;;;8.63;7.82;;;16.80;99.90;;;;;;6303011;28;20386;-80
2021/06/07 20:37:09;;;;;;;8.35;7.55;;;16.90;99.90;;;;;;6286175;28;20119;-82
2021/06/07 20:40:11;;;;;;;8.40;7.65;;;16.80;99.90;;;;;;6302960;28;20020;-82
2021/06/07 20:43:12;;;;;;;8.55;7.75;;;16.80;99.90;;;;;;6285473;28;20057;-83
2021/06/07 20:46:12;;;;;;;10.10;9.10;;;16.70;99.90;;;;;;6302738;28;20032;-81
2021/06/07 20:49:13;;;;;;;8.95;8.02;;;16.70;99.90;;;;;;6285908;28;20538;-81
2021/06/07 20:52:14;;;;;;;9.73;8.80;;;16.70;99.90;;;;;;6286044;28;20028;-81
2021/06/07 20:55:15;;;;;;;9.75;8.77;;;16.70;99.90;;;;;;6285700;28;20064;-84
2021/06/07 20:58:15;;;;;;;9.95;8.73;;;16.70;99.90;;;;;;6302510;28;20114;-83
2021/06/07 21:01:16;;;;;;;8.77;7.90;;;16.80;99.90;;;;;;6302456;28;20077;-82
2021/06/07 21:04:17;;;;;;;9.60;8.70;;;16.80;99.90;;;;;;6302219;28;20373;-81
2021/06/07 21:07:18;;;;;;;10.00;9.00;;;16.70;99.90;;;;;;6301953;28;20028;-81
2021/06/07 21:10:18;;;;;;;9.00;8.10;;;16.70;99.90;;;;;;6301650;28;20115;-81
2021/06/07 21:13:19;;;;;;;9.48;8.48;;;16.60;99.90;;;;;;6268559;28;20036;-82
2021/06/07 21:16:21;;;;;;;9.38;8.13;;;;;;;;;;6285058;28;20058;-81
2021/06/07 21:19:22;;;;;;;10.23;8.93;;;;;;;;;;6284201;28;20027;-82
2021/06/07 21:22:23;;;;;;;9.55;8.55;;;;;;;;;;6302271;28;20110;-82
2021/06/07 21:25:24;;;;;;;10.27;8.80;;;16.60;99.90;;;;;;6301142;28;20161;-83
2021/06/07 21:28:24;;;;;;;9.68;8.60;;;16.60;99.90;;;;;;6284541;28;20024;-82
2021/06/07 21:31:25;;;;;;;9.82;8.93;;;17.90;99.90;;;;;;6284791;28;20028;-82
2021/06/07 21:34:27;;;;;;;10.32;9.30;;;16.30;99.90;;;;;;6284334;28;20035;-82
2021/06/07 21:37:27;;;;;;;9.73;8.82;;;16.40;99.90;;;;;;6284727;28;20126;-82
2021/06/07 21:40:28;;;;;;;8.85;7.95;;;;;;;;;;6284167;28;20097;-82
2021/06/07 21:43:29;;;;;;;9.40;8.60;;;16.50;99.90;;;;;;6300730;28;20027;-82
2021/06/07 21:46:31;;;;;;;9.93;7.90;;;16.40;99.90;;;;;;6300582;28;20042;-82
2021/06/07 21:49:31;;;;;;;9.57;7.97;;;16.60;99.90;;;;;;6300973;28;20524;-82
2021/06/07 21:52:32;;;;;;;8.93;7.80;;;16.60;99.90;;;;;;6300594;28;20638;-82
2021/06/07 21:55:32;;;;;;;8.95;8.05;;;16.60;99.90;;;;;;6283480;28;20056;-82
2021/06/07 21:58:33;;;;;;;9.05;7.57;;;16.40;99.90;;;;;;6300581;28;20392;-82
2021/06/07 22:01:34;;;;;;;8.85;7.68;;;16.50;99.90;;;;;;6300454;28;20024;-82
2021/06/07 22:04:34;;;;;;;9.00;7.97;;;16.40;99.90;;;;;;6299992;28;20028;-82
2021/06/07 22:07:35;;;;;;;9.52;8.40;;;16.40;99.90;;;;;;6283783;28;20435;-82
2021/06/07 22:10:36;;;;;;;8.43;7.70;;;16.40;99.90;;;;;;6300119;28;20442;-82
2021/06/07 22:13:36;;;;;;;9.45;8.43;;;16.40;99.90;;;;;;6318418;28;20028;-82
2021/06/07 22:16:37;;;;;;;8.70;7.63;;;16.50;99.90;;;;;;6283480;28;20046;-82
2021/06/07 22:19:38;;;;;;;9.05;7.78;;;;;;;;;;6283548;28;20407;-82
2021/06/07 22:22:39;;;;;;;9.07;7.85;;;16.50;99.90;;;;;;6283463;28;20025;-81
2021/06/07 22:25:41;;;;;;;9.30;8.40;;;16.40;99.90;;;;;;6266717;28;20454;-82
2021/06/07 22:28:45;;;;;;;8.90;8.10;;;16.50;99.90;;;;;;6282697;28;20028;-82
2021/06/07 22:31:46;;;;;;;10.27;9.18;;;16.50;99.90;;;;;;6282437;28;20456;-82
2021/06/07 22:34:47;;;;;;;14.63;8.55;;;16.40;99.90;;;;;;6283162;28;20027;-82
2021/06/07 22:37:47;;;;;;;9.93;9.05;;;16.20;99.90;;;;;;6283363;28;20145;-82
2021/06/07 22:40:48;;;;;;;13.50;10.32;;;16.50;99.90;;;;;;6266196;28;20131;-82
2021/06/07 22:43:48;;;;;;;11.00;9.95;;;16.20;99.90;;;;;;6283042;28;20028;-81
2021/06/07 22:46:49;;;;;;;10.95;9.75;;;16.30;99.90;;;;;;6299976;28;20055;-82
2021/06/07 22:49:49;;;;;;;11.68;10.25;;;16.20;99.90;;;;;;6299697;28;20028;-82
2021/06/07 22:52:50;;;;;;;12.20;11.05;;;16.30;99.90;;;;;;6299691;28;20035;-82
2021/06/07 22:55:51;;;;;;;10.43;9.40;;;;;;;;;;6282559;28;20453;-82
2021/06/07 22:58:52;;;;;;;11.38;9.68;;;;;;;;;;6317435;28;20081;-83
2021/06/07 23:01:53;;;;;;;11.07;9.77;;;;;;;;;;6283025;28;20031;-82
2021/06/07 23:04:54;;;;;;;10.18;9.18;;;;;;;;;;6299587;28;20036;-82
2021/06/07 23:07:54;;;;;;;11.77;9.40;;;16.30;99.90;;;;;;6299653;28;20469;-81
2021/06/07 23:10:55;;;;;;;11.02;9.82;;;;;;;;;;6282951;28;20082;-81
2021/06/07 23:13:56;;;;;;;12.02;10.45;;;;;;;;;;6317207;28;20470;-81
2021/06/07 23:16:57;;;;;;;12.85;10.18;;;;;;;;;;6299486;28;20056;-81
2021/06/07 23:19:58;;;;;;;10.32;9.23;;;;;;;;;;6295490;28;20443;-81
2021/06/07 23:22:59;;;;;;;10.43;9.32;;;16.40;99.90;;;;;;6282779;28;20024;-81
2021/06/07 23:26:00;;;;;;;10.02;9.07;;;16.50;99.90;;;;;;6299165;28;20032;-82
2021/06/07 23:29:00;;;;;;;10.45;9.30;;;16.30;99.90;;;;;;6265749;28;20589;-81
2021/06/07 23:32:01;;;;;;;11.63;9.60;;;16.10;99.90;;;;;;6282695;28;20077;-81
2021/06/07 23:35:02;;;;;;;10.10;9.10;;;16.40;99.90;;;;;;6282386;28;20031;-83
2021/06/07 23:38:02;;;;;;;9.70;8.77;;;16.40;99.90;;;;;;6282704;28;20028;-82
2021/06/07 23:41:03;;;;;;;10.65;9.50;;;16.30;99.90;;;;;;6282780;28;20378;-82
2021/06/07 23:44:04;;;;;;;10.00;9.00;;;16.00;99.90;;;;;;6269850;28;20040;-82
2021/06/07 23:47:05;;;;;;;11.27;9.20;;;16.10;99.90;;;;;;6286743;28;20040;-82
2021/06/07 23:50:06;;;;;;;11.32;9.70;;;16.00;99.90;;;;;;6270583;28;20035;-83
2021/06/07 23:53:07;;;;;;;10.75;9.23;;;16.00;99.90;;;;;;6287042;28;20032;-82
2021/06/07 23:56:09;;;;;;;10.45;9.43;;;16.00;99.90;;;;;;6261672;28;20130;-82
2021/06/07 23:59:09;;;;;;;10.57;8.85;;;16.20;99.90;;;;;;6278389;28;20028;-83
